sensor_id;sensor_type;location;lat;lon;timestamp;P1;durP1;ratioP1;P2;durP2;ratioP2
10410;SDS011;5251;52.112;8.606;2022-12-05T00:00:29;28.38;;;15.80;;
10410;SDS011;5251;52.112;8.606;2022-12-05T00:02:55;25.55;;;15.68;;
10410;SDS011;5251;52.112;8.606;2022-12-05T00:05:20;28.02;;;15.48;;
10410;SDS011;5251;52.112;8.606;2022-12-05T00:07:46;25.30;;;15.43;;
10410;SDS011;5251;52.112;8.606;2022-12-05T00:10:12;25.88;;;15.18;;
10410;SDS011;5251;52.112;8.606;2022-12-05T00:12:38;29.40;;;15.70;;
10410;SDS011;5251;52.112;8.606;2022-12-05T00:15:03;29.45;;;15.85;;
10410;SDS011;5251;52.112;8.606;2022-12-05T00:17:30;26.23;;;15.68;;
10410;SDS011;5251;52.112;8.606;2022-12-05T00:19:56;27.67;;;16.35;;
10410;SDS011;5251;52.112;8.606;2022-12-05T00:22:22;27.35;;;16.58;;
10410;SDS011;5251;52.112;8.606;2022-12-05T00:24:48;27.35;;;15.57;;
10410;SDS011;5251;52.112;8.606;2022-12-05T00:27:14;27.48;;;15.43;;
10410;SDS011;5251;52.112;8.606;2022-12-05T00:29:39;27.73;;;16.13;;
10410;SDS011;5251;52.112;8.606;2022-12-05T00:32:05;27.20;;;16.05;;
10410;SDS011;5251;52.112;8.606;2022-12-05T00:34:31;25.85;;;15.95;;
10410;SDS011;5251;52.112;8.606;2022-12-05T00:36:56;23.70;;;14.95;;
10410;SDS011;5251;52.112;8.606;2022-12-05T00:39:22;27.85;;;15.45;;
10410;SDS011;5251;52.112;8.606;2022-12-05T00:41:47;27.80;;;15.60;;
10410;SDS011;5251;52.112;8.606;2022-12-05T00:44:13;26.60;;;16.13;;
10410;SDS011;5251;52.112;8.606;2022-12-05T00:46:38;23.30;;;14.35;;
10410;SDS011;5251;52.112;8.606;2022-12-05T00:49:05;25.15;;;14.95;;
10410;SDS011;5251;52.112;8.606;2022-12-05T00:51:35;25.77;;;14.57;;
10410;SDS011;5251;52.112;8.606;2022-12-05T00:54:04;26.67;;;15.15;;
10410;SDS011;5251;52.112;8.606;2022-12-05T00:56:32;24.42;;;15.27;;
10410;SDS011;5251;52.112;8.606;2022-12-05T00:58:59;26.13;;;15.25;;
10410;SDS011;5251;52.112;8.606;2022-12-05T01:01:29;23.65;;;14.95;;
10410;SDS011;5251;52.112;8.606;2022-12-05T01:04:07;24.65;;;15.02;;
10410;SDS011;5251;52.112;8.606;2022-12-05T01:06:36;28.52;;;16.17;;
10410;SDS011;5251;52.112;8.606;2022-12-05T01:09:02;26.23;;;15.82;;
10410;SDS011;5251;52.112;8.606;2022-12-05T01:11:28;26.50;;;15.52;;
10410;SDS011;5251;52.112;8.606;2022-12-05T01:13:54;29.33;;;16.30;;
10410;SDS011;5251;52.112;8.606;2022-12-05T01:16:22;23.98;;;15.02;;
10410;SDS011;5251;52.112;8.606;2022-12-05T01:18:50;24.25;;;14.85;;
10410;SDS011;5251;52.112;8.606;2022-12-05T01:21:16;27.50;;;15.65;;
10410;SDS011;5251;52.112;8.606;2022-12-05T01:23:42;25.17;;;15.13;;
10410;SDS011;5251;52.112;8.606;2022-12-05T01:26:08;27.15;;;15.80;;
10410;SDS011;5251;52.112;8.606;2022-12-05T01:28:36;24.58;;;14.45;;
10410;SDS011;5251;52.112;8.606;2022-12-05T01:31:04;24.00;;;14.80;;
10410;SDS011;5251;52.112;8.606;2022-12-05T01:33:32;25.63;;;15.68;;
10410;SDS011;5251;52.112;8.606;2022-12-05T01:35:58;27.75;;;15.07;;
10410;SDS011;5251;52.112;8.606;2022-12-05T01:38:24;24.42;;;15.13;;
10410;SDS011;5251;52.112;8.606;2022-12-05T01:40:50;25.60;;;15.68;;
10410;SDS011;5251;52.112;8.606;2022-12-05T01:43:30;24.60;;;15.18;;
10410;SDS011;5251;52.112;8.606;2022-12-05T01:45:56;23.25;;;14.45;;
10410;SDS011;5251;52.112;8.606;2022-12-05T01:48:31;22.05;;;13.85;;
10410;SDS011;5251;52.112;8.606;2022-12-05T01:50:59;25.23;;;15.32;;
10410;SDS011;5251;52.112;8.606;2022-12-05T01:53:26;25.58;;;14.52;;
10410;SDS011;5251;52.112;8.606;2022-12-05T01:55:53;24.25;;;14.40;;
10410;SDS011;5251;52.112;8.606;2022-12-05T01:58:20;23.70;;;15.02;;
10410;SDS011;5251;52.112;8.606;2022-12-05T02:00:48;23.85;;;13.23;;
10410;SDS011;5251;52.112;8.606;2022-12-05T02:03:16;21.55;;;14.15;;
10410;SDS011;5251;52.112;8.606;2022-12-05T02:05:44;24.92;;;14.27;;
10410;SDS011;5251;52.112;8.606;2022-12-05T02:08:16;23.42;;;13.70;;
10410;SDS011;5251;52.112;8.606;2022-12-05T02:10:49;21.63;;;13.73;;
10410;SDS011;5251;52.112;8.606;2022-12-05T02:27:42;22.35;;;13.10;;
10410;SDS011;5251;52.112;8.606;2022-12-05T02:30:15;19.58;;;12.85;;
10410;SDS011;5251;52.112;8.606;2022-12-05T02:38:00;19.90;;;12.07;;
10410;SDS011;5251;52.112;8.606;2022-12-05T02:40:32;19.00;;;11.85;;
10410;SDS011;5251;52.112;8.606;2022-12-05T02:43:28;18.13;;;11.98;;
10410;SDS011;5251;52.112;8.606;2022-12-05T02:45:59;19.55;;;11.77;;
10410;SDS011;5251;52.112;8.606;2022-12-05T02:48:28;18.95;;;12.05;;
10410;SDS011;5251;52.112;8.606;2022-12-05T02:50:53;20.38;;;12.50;;
10410;SDS011;5251;52.112;8.606;2022-12-05T02:53:23;18.90;;;11.27;;
10410;SDS011;5251;52.112;8.606;2022-12-05T02:55:51;17.73;;;12.18;;
10410;SDS011;5251;52.112;8.606;2022-12-05T02:58:22;18.42;;;12.10;;
10410;SDS011;5251;52.112;8.606;2022-12-05T03:00:52;17.80;;;11.48;;
10410;SDS011;5251;52.112;8.606;2022-12-05T03:03:20;21.00;;;12.68;;
10410;SDS011;5251;52.112;8.606;2022-12-05T03:05:55;18.38;;;11.93;;
10410;SDS011;5251;52.112;8.606;2022-12-05T03:08:25;18.70;;;12.30;;
10410;SDS011;5251;52.112;8.606;2022-12-05T03:11:06;17.75;;;11.60;;
10410;SDS011;5251;52.112;8.606;2022-12-05T03:13:38;21.25;;;12.60;;
10410;SDS011;5251;52.112;8.606;2022-12-05T03:16:13;21.77;;;13.25;;
10410;SDS011;5251;52.112;8.606;2022-12-05T03:18:44;19.85;;;12.25;;
10410;SDS011;5251;52.112;8.606;2022-12-05T03:21:33;19.33;;;11.82;;
10410;SDS011;5251;52.112;8.606;2022-12-05T03:24:07;19.83;;;12.65;;
10410;SDS011;5251;52.112;8.606;2022-12-05T03:31:44;20.08;;;12.38;;
10410;SDS011;5251;52.112;8.606;2022-12-05T03:34:18;19.30;;;12.13;;
10410;SDS011;5251;52.112;8.606;2022-12-05T03:37:10;22.08;;;13.02;;
10410;SDS011;5251;52.112;8.606;2022-12-05T03:39:43;18.90;;;13.10;;
10410;SDS011;5251;52.112;8.606;2022-12-05T03:42:15;20.27;;;12.82;;
10410;SDS011;5251;52.112;8.606;2022-12-05T03:44:49;18.98;;;11.98;;
10410;SDS011;5251;52.112;8.606;2022-12-05T03:47:25;20.60;;;12.45;;
10410;SDS011;5251;52.112;8.606;2022-12-05T03:50:14;19.15;;;12.50;;
10410;SDS011;5251;52.112;8.606;2022-12-05T03:53:14;23.73;;;13.38;;
10410;SDS011;5251;52.112;8.606;2022-12-05T03:55:44;21.23;;;12.30;;
10410;SDS011;5251;52.112;8.606;2022-12-05T03:58:19;21.02;;;13.43;;
10410;SDS011;5251;52.112;8.606;2022-12-05T04:00:52;21.80;;;12.88;;
10410;SDS011;5251;52.112;8.606;2022-12-05T04:03:26;18.15;;;12.30;;
10410;SDS011;5251;52.112;8.606;2022-12-05T04:06:28;19.63;;;12.43;;
10410;SDS011;5251;52.112;8.606;2022-12-05T04:09:00;20.35;;;12.65;;
10410;SDS011;5251;52.112;8.606;2022-12-05T04:11:30;20.38;;;11.98;;
10410;SDS011;5251;52.112;8.606;2022-12-05T04:14:16;20.45;;;13.00;;
10410;SDS011;5251;52.112;8.606;2022-12-05T04:17:05;21.08;;;12.45;;
10410;SDS011;5251;52.112;8.606;2022-12-05T04:22:21;19.95;;;12.30;;
10410;SDS011;5251;52.112;8.606;2022-12-05T04:24:49;19.70;;;12.18;;
10410;SDS011;5251;52.112;8.606;2022-12-05T04:27:56;17.98;;;11.88;;
10410;SDS011;5251;52.112;8.606;2022-12-05T04:30:24;19.27;;;12.05;;
10410;SDS011;5251;52.112;8.606;2022-12-05T04:33:07;19.58;;;11.70;;
10410;SDS011;5251;52.112;8.606;2022-12-05T04:35:52;20.27;;;12.45;;
10410;SDS011;5251;52.112;8.606;2022-12-05T04:38:36;24.00;;;13.15;;
10410;SDS011;5251;52.112;8.606;2022-12-05T04:41:09;21.67;;;12.30;;
10410;SDS011;5251;52.112;8.606;2022-12-05T04:43:40;18.20;;;12.32;;
10410;SDS011;5251;52.112;8.606;2022-12-05T04:46:08;21.08;;;13.05;;
10410;SDS011;5251;52.112;8.606;2022-12-05T04:48:38;19.45;;;12.55;;
10410;SDS011;5251;52.112;8.606;2022-12-05T04:51:06;19.27;;;12.82;;
10410;SDS011;5251;52.112;8.606;2022-12-05T04:53:36;19.73;;;12.40;;
10410;SDS011;5251;52.112;8.606;2022-12-05T04:56:05;20.75;;;13.27;;
10410;SDS011;5251;52.112;8.606;2022-12-05T04:58:31;21.98;;;13.10;;
10410;SDS011;5251;52.112;8.606;2022-12-05T05:01:08;20.58;;;12.80;;
10410;SDS011;5251;52.112;8.606;2022-12-05T05:03:55;21.25;;;12.48;;
10410;SDS011;5251;52.112;8.606;2022-12-05T05:06:24;19.08;;;12.18;;
10410;SDS011;5251;52.112;8.606;2022-12-05T05:08:54;21.17;;;13.52;;
10410;SDS011;5251;52.112;8.606;2022-12-05T05:11:22;21.45;;;12.98;;
10410;SDS011;5251;52.112;8.606;2022-12-05T05:13:53;19.50;;;13.02;;
10410;SDS011;5251;52.112;8.606;2022-12-05T05:16:20;21.00;;;13.27;;
10410;SDS011;5251;52.112;8.606;2022-12-05T05:18:47;20.27;;;12.98;;
10410;SDS011;5251;52.112;8.606;2022-12-05T05:21:15;19.15;;;12.43;;
10410;SDS011;5251;52.112;8.606;2022-12-05T05:23:40;18.35;;;12.30;;
10410;SDS011;5251;52.112;8.606;2022-12-05T05:26:06;20.42;;;12.25;;
10410;SDS011;5251;52.112;8.606;2022-12-05T05:28:31;17.42;;;12.13;;
10410;SDS011;5251;52.112;8.606;2022-12-05T05:31:00;17.85;;;12.05;;
10410;SDS011;5251;52.112;8.606;2022-12-05T05:33:27;19.13;;;12.35;;
10410;SDS011;5251;52.112;8.606;2022-12-05T05:35:53;19.75;;;12.77;;
10410;SDS011;5251;52.112;8.606;2022-12-05T05:38:18;18.35;;;12.43;;
10410;SDS011;5251;52.112;8.606;2022-12-05T05:40:44;18.15;;;11.25;;
10410;SDS011;5251;52.112;8.606;2022-12-05T05:43:09;17.17;;;11.40;;
10410;SDS011;5251;52.112;8.606;2022-12-05T05:45:35;18.65;;;11.40;;
10410;SDS011;5251;52.112;8.606;2022-12-05T05:48:01;18.45;;;11.55;;
10410;SDS011;5251;52.112;8.606;2022-12-05T05:50:27;18.25;;;11.77;;
10410;SDS011;5251;52.112;8.606;2022-12-05T05:52:52;16.85;;;11.18;;
10410;SDS011;5251;52.112;8.606;2022-12-05T05:55:18;18.02;;;12.18;;
10410;SDS011;5251;52.112;8.606;2022-12-05T05:57:44;17.40;;;11.45;;
10410;SDS011;5251;52.112;8.606;2022-12-05T06:00:10;15.80;;;10.50;;
10410;SDS011;5251;52.112;8.606;2022-12-05T06:02:36;17.77;;;11.45;;
10410;SDS011;5251;52.112;8.606;2022-12-05T06:05:02;16.40;;;10.95;;
10410;SDS011;5251;52.112;8.606;2022-12-05T06:07:28;15.77;;;10.60;;
10410;SDS011;5251;52.112;8.606;2022-12-05T06:09:54;17.95;;;11.60;;
10410;SDS011;5251;52.112;8.606;2022-12-05T06:12:20;18.02;;;11.23;;
10410;SDS011;5251;52.112;8.606;2022-12-05T06:14:47;17.90;;;11.25;;
10410;SDS011;5251;52.112;8.606;2022-12-05T06:17:13;17.40;;;10.93;;
10410;SDS011;5251;52.112;8.606;2022-12-05T06:19:39;17.85;;;11.65;;
10410;SDS011;5251;52.112;8.606;2022-12-05T06:22:05;17.02;;;11.55;;
10410;SDS011;5251;52.112;8.606;2022-12-05T06:24:30;19.25;;;11.60;;
10410;SDS011;5251;52.112;8.606;2022-12-05T06:26:56;17.35;;;11.75;;
10410;SDS011;5251;52.112;8.606;2022-12-05T06:29:21;17.75;;;11.40;;
10410;SDS011;5251;52.112;8.606;2022-12-05T06:31:47;17.25;;;11.40;;
10410;SDS011;5251;52.112;8.606;2022-12-05T06:34:12;16.98;;;11.13;;
10410;SDS011;5251;52.112;8.606;2022-12-05T06:36:38;16.83;;;11.80;;
10410;SDS011;5251;52.112;8.606;2022-12-05T06:39:04;16.13;;;11.35;;
10410;SDS011;5251;52.112;8.606;2022-12-05T06:41:29;17.25;;;11.73;;
10410;SDS011;5251;52.112;8.606;2022-12-05T06:43:55;17.33;;;11.23;;
10410;SDS011;5251;52.112;8.606;2022-12-05T06:46:22;16.70;;;11.52;;
10410;SDS011;5251;52.112;8.606;2022-12-05T06:48:51;18.00;;;11.48;;
10410;SDS011;5251;52.112;8.606;2022-12-05T06:51:18;16.88;;;11.43;;
10410;SDS011;5251;52.112;8.606;2022-12-05T06:53:44;15.75;;;10.73;;
10410;SDS011;5251;52.112;8.606;2022-12-05T06:56:10;16.20;;;10.45;;
10410;SDS011;5251;52.112;8.606;2022-12-05T06:58:41;17.45;;;11.40;;
10410;SDS011;5251;52.112;8.606;2022-12-05T07:01:10;14.15;;;10.43;;
10410;SDS011;5251;52.112;8.606;2022-12-05T07:03:57;15.57;;;10.95;;
10410;SDS011;5251;52.112;8.606;2022-12-05T07:06:23;16.08;;;11.85;;
10410;SDS011;5251;52.112;8.606;2022-12-05T07:08:49;13.93;;;9.93;;
10410;SDS011;5251;52.112;8.606;2022-12-05T07:11:14;16.40;;;10.75;;
10410;SDS011;5251;52.112;8.606;2022-12-05T07:13:40;15.00;;;10.48;;
10410;SDS011;5251;52.112;8.606;2022-12-05T07:16:06;16.73;;;11.18;;
10410;SDS011;5251;52.112;8.606;2022-12-05T07:18:32;14.93;;;9.95;;
10410;SDS011;5251;52.112;8.606;2022-12-05T07:21:00;14.65;;;9.60;;
10410;SDS011;5251;52.112;8.606;2022-12-05T07:23:27;15.30;;;10.55;;
10410;SDS011;5251;52.112;8.606;2022-12-05T07:25:53;12.68;;;10.05;;
10410;SDS011;5251;52.112;8.606;2022-12-05T07:28:18;15.30;;;10.30;;
10410;SDS011;5251;52.112;8.606;2022-12-05T07:30:44;14.82;;;10.95;;
10410;SDS011;5251;52.112;8.606;2022-12-05T07:33:10;17.38;;;11.70;;
10410;SDS011;5251;52.112;8.606;2022-12-05T07:35:35;13.90;;;9.93;;
10410;SDS011;5251;52.112;8.606;2022-12-05T07:38:01;13.07;;;9.50;;
10410;SDS011;5251;52.112;8.606;2022-12-05T07:40:27;12.32;;;9.50;;
10410;SDS011;5251;52.112;8.606;2022-12-05T07:42:52;12.98;;;9.32;;
10410;SDS011;5251;52.112;8.606;2022-12-05T07:45:18;13.00;;;9.10;;
10410;SDS011;5251;52.112;8.606;2022-12-05T07:47:45;12.10;;;9.10;;
10410;SDS011;5251;52.112;8.606;2022-12-05T07:50:10;12.95;;;9.20;;
10410;SDS011;5251;52.112;8.606;2022-12-05T07:52:36;11.82;;;9.18;;
10410;SDS011;5251;52.112;8.606;2022-12-05T07:55:02;13.65;;;9.15;;
10410;SDS011;5251;52.112;8.606;2022-12-05T07:57:28;11.77;;;8.93;;
10410;SDS011;5251;52.112;8.606;2022-12-05T07:59:54;11.32;;;8.65;;
10410;SDS011;5251;52.112;8.606;2022-12-05T08:02:20;12.23;;;8.90;;
10410;SDS011;5251;52.112;8.606;2022-12-05T08:04:45;11.68;;;8.20;;
10410;SDS011;5251;52.112;8.606;2022-12-05T08:07:11;12.15;;;8.02;;
10410;SDS011;5251;52.112;8.606;2022-12-05T08:09:37;11.30;;;8.55;;
10410;SDS011;5251;52.112;8.606;2022-12-05T08:12:02;11.73;;;8.18;;
10410;SDS011;5251;52.112;8.606;2022-12-05T08:14:28;13.50;;;8.60;;
10410;SDS011;5251;52.112;8.606;2022-12-05T08:16:54;11.80;;;8.68;;
10410;SDS011;5251;52.112;8.606;2022-12-05T08:19:19;13.48;;;8.70;;
10410;SDS011;5251;52.112;8.606;2022-12-05T08:21:45;11.18;;;8.30;;
10410;SDS011;5251;52.112;8.606;2022-12-05T08:24:11;12.70;;;8.82;;
10410;SDS011;5251;52.112;8.606;2022-12-05T08:26:37;11.00;;;8.50;;
10410;SDS011;5251;52.112;8.606;2022-12-05T08:29:07;11.57;;;8.50;;
10410;SDS011;5251;52.112;8.606;2022-12-05T08:31:37;10.95;;;8.35;;
10410;SDS011;5251;52.112;8.606;2022-12-05T08:34:09;9.88;;;8.02;;
10410;SDS011;5251;52.112;8.606;2022-12-05T08:36:36;11.23;;;8.13;;
10410;SDS011;5251;52.112;8.606;2022-12-05T08:39:03;10.90;;;8.25;;
10410;SDS011;5251;52.112;8.606;2022-12-05T08:41:30;11.65;;;8.80;;
10410;SDS011;5251;52.112;8.606;2022-12-05T08:43:57;10.90;;;7.95;;
10410;SDS011;5251;52.112;8.606;2022-12-05T08:46:28;9.80;;;7.78;;
10410;SDS011;5251;52.112;8.606;2022-12-05T08:48:54;9.35;;;7.28;;
10410;SDS011;5251;52.112;8.606;2022-12-05T08:51:20;8.90;;;7.30;;
10410;SDS011;5251;52.112;8.606;2022-12-05T08:53:46;9.68;;;7.10;;
10410;SDS011;5251;52.112;8.606;2022-12-05T08:56:11;9.82;;;7.45;;
10410;SDS011;5251;52.112;8.606;2022-12-05T08:58:38;9.68;;;7.60;;
10410;SDS011;5251;52.112;8.606;2022-12-05T09:01:05;10.80;;;7.75;;
10410;SDS011;5251;52.112;8.606;2022-12-05T09:03:31;10.15;;;7.88;;
10410;SDS011;5251;52.112;8.606;2022-12-05T09:06:04;11.10;;;8.32;;
10410;SDS011;5251;52.112;8.606;2022-12-05T09:08:37;10.35;;;7.60;;
10410;SDS011;5251;52.112;8.606;2022-12-05T09:11:07;11.07;;;8.20;;
10410;SDS011;5251;52.112;8.606;2022-12-05T09:13:34;10.98;;;7.65;;
10410;SDS011;5251;52.112;8.606;2022-12-05T09:16:12;10.30;;;7.47;;
10410;SDS011;5251;52.112;8.606;2022-12-05T09:18:49;11.75;;;8.00;;
10410;SDS011;5251;52.112;8.606;2022-12-05T09:21:19;11.38;;;7.95;;
10410;SDS011;5251;52.112;8.606;2022-12-05T09:23:46;9.90;;;7.45;;
10410;SDS011;5251;52.112;8.606;2022-12-05T09:26:14;10.57;;;7.88;;
10410;SDS011;5251;52.112;8.606;2022-12-05T09:28:41;10.13;;;7.78;;
10410;SDS011;5251;52.112;8.606;2022-12-05T09:31:09;10.52;;;7.88;;
10410;SDS011;5251;52.112;8.606;2022-12-05T09:33:39;9.38;;;7.55;;
10410;SDS011;5251;52.112;8.606;2022-12-05T09:36:06;10.93;;;8.30;;
10410;SDS011;5251;52.112;8.606;2022-12-05T09:38:37;10.60;;;8.18;;
10410;SDS011;5251;52.112;8.606;2022-12-05T09:44:06;10.50;;;8.25;;
10410;SDS011;5251;52.112;8.606;2022-12-05T09:46:57;12.70;;;8.80;;
10410;SDS011;5251;52.112;8.606;2022-12-05T09:49:28;11.73;;;9.10;;
10410;SDS011;5251;52.112;8.606;2022-12-05T09:51:56;10.02;;;7.90;;
10410;SDS011;5251;52.112;8.606;2022-12-05T09:54:23;10.48;;;8.13;;
10410;SDS011;5251;52.112;8.606;2022-12-05T09:56:49;10.82;;;7.97;;
10410;SDS011;5251;52.112;8.606;2022-12-05T09:59:17;10.60;;;8.23;;
10410;SDS011;5251;52.112;8.606;2022-12-05T10:06:55;9.35;;;7.40;;
10410;SDS011;5251;52.112;8.606;2022-12-05T10:12:44;10.10;;;7.78;;
10410;SDS011;5251;52.112;8.606;2022-12-05T10:18:02;8.55;;;7.30;;
10410;SDS011;5251;52.112;8.606;2022-12-05T10:20:33;9.90;;;7.47;;
10410;SDS011;5251;52.112;8.606;2022-12-05T10:23:04;9.20;;;7.47;;
10410;SDS011;5251;52.112;8.606;2022-12-05T10:25:36;9.40;;;7.45;;
10410;SDS011;5251;52.112;8.606;2022-12-05T10:28:05;7.43;;;6.57;;
10410;SDS011;5251;52.112;8.606;2022-12-05T10:30:47;9.88;;;7.82;;
10410;SDS011;5251;52.112;8.606;2022-12-05T10:33:25;9.77;;;7.63;;
10410;SDS011;5251;52.112;8.606;2022-12-05T10:35:57;7.88;;;6.75;;
10410;SDS011;5251;52.112;8.606;2022-12-05T10:38:24;7.90;;;6.75;;
10410;SDS011;5251;52.112;8.606;2022-12-05T10:40:53;9.55;;;7.38;;
10410;SDS011;5251;52.112;8.606;2022-12-05T10:43:26;9.77;;;6.88;;
10410;SDS011;5251;52.112;8.606;2022-12-05T10:45:53;8.77;;;7.40;;
10410;SDS011;5251;52.112;8.606;2022-12-05T10:48:20;9.57;;;7.60;;
10410;SDS011;5251;52.112;8.606;2022-12-05T10:50:47;10.18;;;8.13;;
10410;SDS011;5251;52.112;8.606;2022-12-05T10:53:16;9.63;;;7.65;;
10410;SDS011;5251;52.112;8.606;2022-12-05T10:55:45;9.75;;;8.25;;
10410;SDS011;5251;52.112;8.606;2022-12-05T10:58:13;9.82;;;7.88;;
10410;SDS011;5251;52.112;8.606;2022-12-05T11:00:39;9.23;;;7.57;;
10410;SDS011;5251;52.112;8.606;2022-12-05T11:03:19;9.85;;;7.75;;
10410;SDS011;5251;52.112;8.606;2022-12-05T11:05:55;9.88;;;7.90;;
10410;SDS011;5251;52.112;8.606;2022-12-05T11:08:23;10.13;;;8.15;;
10410;SDS011;5251;52.112;8.606;2022-12-05T11:11:00;10.55;;;8.18;;
10410;SDS011;5251;52.112;8.606;2022-12-05T11:13:31;9.52;;;7.40;;
10410;SDS011;5251;52.112;8.606;2022-12-05T11:15:57;8.90;;;7.85;;
10410;SDS011;5251;52.112;8.606;2022-12-05T11:20:49;10.88;;;8.35;;
10410;SDS011;5251;52.112;8.606;2022-12-05T11:23:36;9.15;;;7.80;;
10410;SDS011;5251;52.112;8.606;2022-12-05T11:26:00;10.20;;;7.65;;
10410;SDS011;5251;52.112;8.606;2022-12-05T11:28:31;9.73;;;8.02;;
10410;SDS011;5251;52.112;8.606;2022-12-05T11:33:40;10.43;;;7.72;;
10410;SDS011;5251;52.112;8.606;2022-12-05T11:38:37;9.60;;;7.78;;
10410;SDS011;5251;52.112;8.606;2022-12-05T11:55:02;10.23;;;8.38;;
10410;SDS011;5251;52.112;8.606;2022-12-05T12:00:58;10.60;;;8.30;;
10410;SDS011;5251;52.112;8.606;2022-12-05T12:03:57;11.15;;;8.00;;
10410;SDS011;5251;52.112;8.606;2022-12-05T12:15:14;10.60;;;8.25;;
10410;SDS011;5251;52.112;8.606;2022-12-05T12:23:04;10.88;;;8.25;;
10410;SDS011;5251;52.112;8.606;2022-12-05T12:28:44;11.38;;;8.60;;
10410;SDS011;5251;52.112;8.606;2022-12-05T12:46:42;10.02;;;8.25;;
10410;SDS011;5251;52.112;8.606;2022-12-05T12:52:21;10.20;;;7.93;;
10410;SDS011;5251;52.112;8.606;2022-12-05T12:55:02;11.05;;;8.43;;
10410;SDS011;5251;52.112;8.606;2022-12-05T12:57:50;10.90;;;8.50;;
10410;SDS011;5251;52.112;8.606;2022-12-05T13:03:12;11.80;;;8.80;;
10410;SDS011;5251;52.112;8.606;2022-12-05T13:05:44;11.05;;;8.90;;
10410;SDS011;5251;52.112;8.606;2022-12-05T13:11:14;11.10;;;8.05;;
10410;SDS011;5251;52.112;8.606;2022-12-05T13:13:42;11.10;;;8.65;;
10410;SDS011;5251;52.112;8.606;2022-12-05T13:16:27;10.60;;;8.52;;
10410;SDS011;5251;52.112;8.606;2022-12-05T13:18:59;9.73;;;7.60;;
10410;SDS011;5251;52.112;8.606;2022-12-05T13:21:26;10.65;;;8.73;;
10410;SDS011;5251;52.112;8.606;2022-12-05T13:23:53;10.38;;;7.90;;
10410;SDS011;5251;52.112;8.606;2022-12-05T13:26:23;11.60;;;8.60;;
10410;SDS011;5251;52.112;8.606;2022-12-05T13:28:56;10.40;;;8.18;;
10410;SDS011;5251;52.112;8.606;2022-12-05T13:31:33;10.18;;;8.30;;
10410;SDS011;5251;52.112;8.606;2022-12-05T13:33:59;9.63;;;7.95;;
10410;SDS011;5251;52.112;8.606;2022-12-05T13:36:25;9.70;;;7.93;;
10410;SDS011;5251;52.112;8.606;2022-12-05T13:41:56;9.10;;;8.20;;
10410;SDS011;5251;52.112;8.606;2022-12-05T13:44:50;10.52;;;8.15;;
10410;SDS011;5251;52.112;8.606;2022-12-05T13:47:25;10.77;;;8.20;;
10410;SDS011;5251;52.112;8.606;2022-12-05T13:52:59;10.80;;;8.63;;
10410;SDS011;5251;52.112;8.606;2022-12-05T13:55:53;11.70;;;8.80;;
10410;SDS011;5251;52.112;8.606;2022-12-05T14:00:47;12.30;;;8.60;;
10410;SDS011;5251;52.112;8.606;2022-12-05T14:03:57;10.63;;;8.20;;
10410;SDS011;5251;52.112;8.606;2022-12-05T14:06:02;9.93;;;8.23;;
10410;SDS011;5251;52.112;8.606;2022-12-05T14:15:48;11.65;;;9.35;;
10410;SDS011;5251;52.112;8.606;2022-12-05T14:18:16;9.85;;;8.52;;
10410;SDS011;5251;52.112;8.606;2022-12-05T14:23:39;11.18;;;9.50;;
10410;SDS011;5251;52.112;8.606;2022-12-05T14:37:56;11.68;;;9.07;;
10410;SDS011;5251;52.112;8.606;2022-12-05T14:43:04;11.65;;;9.52;;
10410;SDS011;5251;52.112;8.606;2022-12-05T14:50:43;14.18;;;11.07;;
10410;SDS011;5251;52.112;8.606;2022-12-05T14:55:55;10.90;;;9.00;;
10410;SDS011;5251;52.112;8.606;2022-12-05T15:01:19;11.93;;;9.00;;
10410;SDS011;5251;52.112;8.606;2022-12-05T15:06:52;10.25;;;8.13;;
10410;SDS011;5251;52.112;8.606;2022-12-05T15:14:53;9.75;;;7.90;;
10410;SDS011;5251;52.112;8.606;2022-12-05T15:17:26;9.98;;;8.32;;
10410;SDS011;5251;52.112;8.606;2022-12-05T15:20:05;9.30;;;7.60;;
10410;SDS011;5251;52.112;8.606;2022-12-05T15:22:39;9.40;;;7.68;;
10410;SDS011;5251;52.112;8.606;2022-12-05T15:28:02;11.52;;;8.30;;
10410;SDS011;5251;52.112;8.606;2022-12-05T15:30:42;9.07;;;7.53;;
10410;SDS011;5251;52.112;8.606;2022-12-05T15:33:11;7.88;;;7.07;;
10410;SDS011;5251;52.112;8.606;2022-12-05T15:35:37;8.77;;;7.28;;
10410;SDS011;5251;52.112;8.606;2022-12-05T15:38:06;9.13;;;7.70;;
10410;SDS011;5251;52.112;8.606;2022-12-05T15:40:44;8.95;;;7.57;;
10410;SDS011;5251;52.112;8.606;2022-12-05T15:43:28;9.52;;;7.72;;
10410;SDS011;5251;52.112;8.606;2022-12-05T15:48:52;9.35;;;7.80;;
10410;SDS011;5251;52.112;8.606;2022-12-05T15:51:20;9.05;;;7.40;;
10410;SDS011;5251;52.112;8.606;2022-12-05T15:53:53;8.07;;;7.28;;
10410;SDS011;5251;52.112;8.606;2022-12-05T15:56:42;8.25;;;6.93;;
10410;SDS011;5251;52.112;8.606;2022-12-05T16:01:51;7.72;;;6.93;;
10410;SDS011;5251;52.112;8.606;2022-12-05T16:04:30;8.18;;;7.18;;
10410;SDS011;5251;52.112;8.606;2022-12-05T16:07:18;7.95;;;7.05;;
10410;SDS011;5251;52.112;8.606;2022-12-05T16:09:46;8.43;;;6.85;;
10410;SDS011;5251;52.112;8.606;2022-12-05T16:12:25;8.70;;;6.97;;
10410;SDS011;5251;52.112;8.606;2022-12-05T16:14:52;9.23;;;6.78;;
10410;SDS011;5251;52.112;8.606;2022-12-05T16:17:21;7.25;;;6.53;;
10410;SDS011;5251;52.112;8.606;2022-12-05T16:19:47;14.05;;;7.00;;
10410;SDS011;5251;52.112;8.606;2022-12-05T16:24:42;6.88;;;6.15;;
10410;SDS011;5251;52.112;8.606;2022-12-05T16:27:22;7.60;;;6.50;;
10410;SDS011;5251;52.112;8.606;2022-12-05T16:30:09;7.70;;;6.70;;
10410;SDS011;5251;52.112;8.606;2022-12-05T16:32:45;7.82;;;6.57;;
10410;SDS011;5251;52.112;8.606;2022-12-05T16:43:43;7.53;;;6.70;;
10410;SDS011;5251;52.112;8.606;2022-12-05T16:48:43;7.93;;;7.00;;
10410;SDS011;5251;52.112;8.606;2022-12-05T16:51:21;8.02;;;6.80;;
10410;SDS011;5251;52.112;8.606;2022-12-05T16:53:53;7.75;;;6.35;;
10410;SDS011;5251;52.112;8.606;2022-12-05T16:56:26;7.85;;;6.65;;
10410;SDS011;5251;52.112;8.606;2022-12-05T16:58:55;8.05;;;6.63;;
10410;SDS011;5251;52.112;8.606;2022-12-05T17:01:22;10.27;;;7.00;;
10410;SDS011;5251;52.112;8.606;2022-12-05T17:03:49;7.97;;;6.63;;
10410;SDS011;5251;52.112;8.606;2022-12-05T17:06:17;7.70;;;6.90;;
10410;SDS011;5251;52.112;8.606;2022-12-05T17:08:45;7.78;;;6.80;;
10410;SDS011;5251;52.112;8.606;2022-12-05T17:11:13;7.72;;;6.93;;
10410;SDS011;5251;52.112;8.606;2022-12-05T17:13:44;7.20;;;6.40;;
10410;SDS011;5251;52.112;8.606;2022-12-05T17:16:12;8.95;;;6.60;;
10410;SDS011;5251;52.112;8.606;2022-12-05T17:18:42;6.90;;;6.20;;
10410;SDS011;5251;52.112;8.606;2022-12-05T17:21:09;7.60;;;6.80;;
10410;SDS011;5251;52.112;8.606;2022-12-05T17:23:38;7.80;;;6.70;;
10410;SDS011;5251;52.112;8.606;2022-12-05T17:26:04;7.90;;;7.03;;
10410;SDS011;5251;52.112;8.606;2022-12-05T17:28:30;7.95;;;6.57;;
10410;SDS011;5251;52.112;8.606;2022-12-05T17:30:55;7.93;;;7.15;;
10410;SDS011;5251;52.112;8.606;2022-12-05T17:33:21;8.85;;;7.65;;
10410;SDS011;5251;52.112;8.606;2022-12-05T17:35:46;7.95;;;7.15;;
10410;SDS011;5251;52.112;8.606;2022-12-05T17:38:12;8.15;;;7.10;;
10410;SDS011;5251;52.112;8.606;2022-12-05T17:40:38;8.27;;;7.25;;
10410;SDS011;5251;52.112;8.606;2022-12-05T17:43:04;7.95;;;7.15;;
10410;SDS011;5251;52.112;8.606;2022-12-05T17:45:30;7.72;;;6.95;;
10410;SDS011;5251;52.112;8.606;2022-12-05T17:47:57;8.57;;;7.15;;
10410;SDS011;5251;52.112;8.606;2022-12-05T17:50:23;8.30;;;7.10;;
10410;SDS011;5251;52.112;8.606;2022-12-05T17:52:50;8.35;;;7.50;;
10410;SDS011;5251;52.112;8.606;2022-12-05T17:55:20;8.38;;;7.30;;
10410;SDS011;5251;52.112;8.606;2022-12-05T17:57:50;8.80;;;7.72;;
10410;SDS011;5251;52.112;8.606;2022-12-05T18:00:18;9.40;;;7.68;;
10410;SDS011;5251;52.112;8.606;2022-12-05T18:02:45;9.07;;;7.43;;
10410;SDS011;5251;52.112;8.606;2022-12-05T18:05:11;9.43;;;7.70;;